sensor_id;sensor_type;location;lat;lon;timestamp;temperature;humidity
19968;DHT22;10145;49.152;9.282;2022-11-20T15:40:02;6.10;99.90
19968;DHT22;10145;49.152;9.282;2022-11-20T15:42:28;6.30;99.90
19968;DHT22;10145;49.152;9.282;2022-11-20T15:44:53;6.30;99.90
19968;DHT22;10145;49.152;9.282;2022-11-20T15:47:27;6.20;99.90
19968;DHT22;10145;49.152;9.282;2022-11-20T15:49:53;6.20;99.90
19968;DHT22;10145;49.152;9.282;2022-11-20T15:52:18;6.30;99.90
19968;DHT22;10145;49.152;9.282;2022-11-20T15:54:44;6.30;99.90
19968;DHT22;10145;49.152;9.282;2022-11-20T15:57:10;6.20;99.90
19968;DHT22;10145;49.152;9.282;2022-11-20T15:59:35;6.20;99.90
19968;DHT22;10145;49.152;9.282;2022-11-20T16:02:11;6.10;99.90
19968;DHT22;10145;49.152;9.282;2022-11-20T16:04:38;6.10;99.90
19968;DHT22;10145;49.152;9.282;2022-11-20T16:07:03;6.00;99.90
19968;DHT22;10145;49.152;9.282;2022-11-20T16:09:29;6.00;99.90
19968;DHT22;10145;49.152;9.282;2022-11-20T16:11:55;5.90;99.90
19968;DHT22;10145;49.152;9.282;2022-11-20T16:14:20;5.90;99.90
19968;DHT22;10145;49.152;9.282;2022-11-20T16:17:04;5.90;99.90
19968;DHT22;10145;49.152;9.282;2022-11-20T16:19:30;5.80;99.90
19968;DHT22;10145;49.152;9.282;2022-11-20T16:21:57;5.90;99.90
19968;DHT22;10145;49.152;9.282;2022-11-20T16:24:24;5.90;99.90
19968;DHT22;10145;49.152;9.282;2022-11-20T16:26:49;5.80;99.90
19968;DHT22;10145;49.152;9.282;2022-11-20T16:29:15;5.80;99.90
19968;DHT22;10145;49.152;9.282;2022-11-20T16:31:40;5.80;99.90
19968;DHT22;10145;49.152;9.282;2022-11-20T16:34:07;5.80;99.90
19968;DHT22;10145;49.152;9.282;2022-11-20T16:36:33;5.80;99.90
19968;DHT22;10145;49.152;9.282;2022-11-20T16:39:01;5.80;99.90
19968;DHT22;10145;49.152;9.282;2022-11-20T16:41:30;5.80;99.90
19968;DHT22;10145;49.152;9.282;2022-11-20T16:43:57;5.90;99.90
19968;DHT22;10145;49.152;9.282;2022-11-20T16:46:30;5.90;99.90
19968;DHT22;10145;49.152;9.282;2022-11-20T16:49:04;6.00;99.90
19968;DHT22;10145;49.152;9.282;2022-11-20T16:51:33;6.10;99.90
19968;DHT22;10145;49.152;9.282;2022-11-20T16:54:02;6.10;99.90
19968;DHT22;10145;49.152;9.282;2022-11-20T16:56:27;6.10;99.90
19968;DHT22;10145;49.152;9.282;2022-11-20T16:58:55;6.10;99.90
19968;DHT22;10145;49.152;9.282;2022-11-20T17:01:22;6.50;99.90
19968;DHT22;10145;49.152;9.282;2022-11-20T17:03:56;6.20;99.90
19968;DHT22;10145;49.152;9.282;2022-11-20T17:06:25;6.10;99.90
19968;DHT22;10145;49.152;9.282;2022-11-20T17:08:53;6.10;99.90
19968;DHT22;10145;49.152;9.282;2022-11-20T17:11:19;6.10;99.90
19968;DHT22;10145;49.152;9.282;2022-11-20T17:13:45;6.20;99.90
19968;DHT22;10145;49.152;9.282;2022-11-20T17:16:14;6.20;99.90
19968;DHT22;10145;49.152;9.282;2022-11-20T17:18:40;6.20;99.90
19968;DHT22;10145;49.152;9.282;2022-11-20T17:21:06;6.20;99.90
19968;DHT22;10145;49.152;9.282;2022-11-20T17:23:37;6.30;99.90
19968;DHT22;10145;49.152;9.282;2022-11-20T17:26:09;6.30;99.90
19968;DHT22;10145;49.152;9.282;2022-11-20T17:28:35;6.30;99.90
19968;DHT22;10145;49.152;9.282;2022-11-20T17:31:04;6.40;99.90
19968;DHT22;10145;49.152;9.282;2022-11-20T17:33:29;6.30;99.90
19968;DHT22;10145;49.152;9.282;2022-11-20T17:35:55;6.40;99.90
19968;DHT22;10145;49.152;9.282;2022-11-20T17:38:21;6.40;99.90
19968;DHT22;10145;49.152;9.282;2022-11-20T17:40:47;6.50;99.90
19968;DHT22;10145;49.152;9.282;2022-11-20T17:43:13;6.50;99.90
19968;DHT22;10145;49.152;9.282;2022-11-20T17:45:38;6.50;99.90
19968;DHT22;10145;49.152;9.282;2022-11-20T17:48:04;6.50;99.90
19968;DHT22;10145;49.152;9.282;2022-11-20T17:50:30;6.40;99.90
19968;DHT22;10145;49.152;9.282;2022-11-20T17:52:55;6.50;99.90
19968;DHT22;10145;49.152;9.282;2022-11-20T17:55:21;6.40;99.90
19968;DHT22;10145;49.152;9.282;2022-11-20T17:57:46;6.40;99.90
19968;DHT22;10145;49.152;9.282;2022-11-20T18:00:20;6.40;99.90
19968;DHT22;10145;49.152;9.282;2022-11-20T18:02:46;6.40;99.90
19968;DHT22;10145;49.152;9.282;2022-11-20T18:05:12;6.40;99.90
19968;DHT22;10145;49.152;9.282;2022-11-20T18:07:38;6.50;99.90
19968;DHT22;10145;49.152;9.282;2022-11-20T18:10:04;6.50;99.90
19968;DHT22;10145;49.152;9.282;2022-11-20T18:12:30;6.40;99.90
19968;DHT22;10145;49.152;9.282;2022-11-20T18:14:55;6.40;99.90
19968;DHT22;10145;49.152;9.282;2022-11-20T18:17:21;6.30;99.90
19968;DHT22;10145;49.152;9.282;2022-11-20T18:19:47;6.40;99.90
19968;DHT22;10145;49.152;9.282;2022-11-20T18:22:16;6.40;99.90
19968;DHT22;10145;49.152;9.282;2022-11-20T18:24:42;6.40;99.90
19968;DHT22;10145;49.152;9.282;2022-11-20T18:27:16;6.40;99.90
19968;DHT22;10145;49.152;9.282;2022-11-20T18:29:45;6.30;99.90
19968;DHT22;10145;49.152;9.282;2022-11-20T18:32:11;6.40;99.90
19968;DHT22;10145;49.152;9.282;2022-11-20T18:34:36;6.40;99.90
19968;DHT22;10145;49.152;9.282;2022-11-20T18:37:02;6.40;99.90
19968;DHT22;10145;49.152;9.282;2022-11-20T18:39:27;6.40;99.90
19968;DHT22;10145;49.152;9.282;2022-11-20T18:41:53;6.40;99.90
19968;DHT22;10145;49.152;9.282;2022-11-20T18:44:37;6.40;99.90
19968;DHT22;10145;49.152;9.282;2022-11-20T18:49:49;6.40;99.90
19968;DHT22;10145;49.152;9.282;2022-11-20T18:52:17;6.40;99.90
19968;DHT22;10145;49.152;9.282;2022-11-20T18:54:43;6.30;99.90
19968;DHT22;10145;49.152;9.282;2022-11-20T18:57:09;6.30;99.90
19968;DHT22;10145;49.152;9.282;2022-11-20T18:59:38;6.30;99.90
19968;DHT22;10145;49.152;9.282;2022-11-20T19:02:04;6.20;99.90
19968;DHT22;10145;49.152;9.282;2022-11-20T19:04:29;6.20;99.90
19968;DHT22;10145;49.152;9.282;2022-11-20T19:06:55;6.10;99.90
19968;DHT22;10145;49.152;9.282;2022-11-20T19:09:21;6.10;99.90
19968;DHT22;10145;49.152;9.282;2022-11-20T19:11:47;6.00;99.90
19968;DHT22;10145;49.152;9.282;2022-11-20T19:14:13;6.00;99.90
19968;DHT22;10145;49.152;9.282;2022-11-20T19:16:39;6.00;99.90
19968;DHT22;10145;49.152;9.282;2022-11-20T19:19:05;5.90;99.90
19968;DHT22;10145;49.152;9.282;2022-11-20T19:21:30;5.80;99.90
19968;DHT22;10145;49.152;9.282;2022-11-20T19:23:58;5.80;99.90
19968;DHT22;10145;49.152;9.282;2022-11-20T19:26:25;5.60;99.90
19968;DHT22;10145;49.152;9.282;2022-11-20T19:28:50;5.60;99.90
19968;DHT22;10145;49.152;9.282;2022-11-20T19:31:19;5.50;99.90
19968;DHT22;10145;49.152;9.282;2022-11-20T19:33:45;5.50;99.90
19968;DHT22;10145;49.152;9.282;2022-11-20T19:36:17;5.50;99.90
19968;DHT22;10145;49.152;9.282;2022-11-20T19:38:45;5.40;99.90
19968;DHT22;10145;49.152;9.282;2022-11-20T19:41:13;5.40;99.90
19968;DHT22;10145;49.152;9.282;2022-11-20T19:43:39;5.40;99.90
19968;DHT22;10145;49.152;9.282;2022-11-20T19:46:05;5.40;99.90
19968;DHT22;10145;49.152;9.282;2022-11-20T19:48:32;5.40;99.90
19968;DHT22;10145;49.152;9.282;2022-11-20T19:51:07;5.40;99.90
19968;DHT22;10145;49.152;9.282;2022-11-20T19:53:33;5.40;99.90
19968;DHT22;10145;49.152;9.282;2022-11-20T19:55:59;5.30;99.90
19968;DHT22;10145;49.152;9.282;2022-11-20T19:58:26;5.30;99.90
19968;DHT22;10145;49.152;9.282;2022-11-20T20:00:52;5.30;99.90
19968;DHT22;10145;49.152;9.282;2022-11-20T20:03:18;5.30;99.90
19968;DHT22;10145;49.152;9.282;2022-11-20T20:05:44;5.30;99.90
19968;DHT22;10145;49.152;9.282;2022-11-20T20:08:09;5.30;99.90
19968;DHT22;10145;49.152;9.282;2022-11-20T20:10:35;5.30;99.90
19968;DHT22;10145;49.152;9.282;2022-11-20T20:13:00;5.30;99.90
19968;DHT22;10145;49.152;9.282;2022-11-20T20:15:26;5.30;99.90
19968;DHT22;10145;49.152;9.282;2022-11-20T20:17:52;5.20;99.90
19968;DHT22;10145;49.152;9.282;2022-11-20T20:20:18;5.30;99.90
19968;DHT22;10145;49.152;9.282;2022-11-20T20:22:44;5.30;99.90
19968;DHT22;10145;49.152;9.282;2022-11-20T20:25:10;5.30;99.90
19968;DHT22;10145;49.152;9.282;2022-11-20T20:27:35;5.30;99.90
19968;DHT22;10145;49.152;9.282;2022-11-20T20:30:05;5.30;99.90
19968;DHT22;10145;49.152;9.282;2022-11-20T20:32:31;5.40;99.90
19968;DHT22;10145;49.152;9.282;2022-11-20T20:34:57;5.30;99.90
19968;DHT22;10145;49.152;9.282;2022-11-20T20:37:23;5.40;99.90
19968;DHT22;10145;49.152;9.282;2022-11-20T20:39:49;5.40;99.90
19968;DHT22;10145;49.152;9.282;2022-11-20T20:42:14;5.40;99.90
19968;DHT22;10145;49.152;9.282;2022-11-20T20:44:40;5.40;99.90
19968;DHT22;10145;49.152;9.282;2022-11-20T20:47:29;5.40;99.90
19968;DHT22;10145;49.152;9.282;2022-11-20T20:49:55;5.40;99.90
19968;DHT22;10145;49.152;9.282;2022-11-20T20:52:21;5.40;99.90
19968;DHT22;10145;49.152;9.282;2022-11-20T20:54:46;5.50;99.90
19968;DHT22;10145;49.152;9.282;2022-11-20T20:57:12;5.50;99.90
19968;DHT22;10145;49.152;9.282;2022-11-20T20:59:37;5.50;99.90
19968;DHT22;10145;49.152;9.282;2022-11-20T21:04:41;5.50;99.90
19968;DHT22;10145;49.152;9.282;2022-11-20T21:10:30;5.60;99.90
19968;DHT22;10145;49.152;9.282;2022-11-20T21:13:12;5.50;99.90
19968;DHT22;10145;49.152;9.282;2022-11-20T21:15:41;5.50;99.90
19968;DHT22;10145;49.152;9.282;2022-11-20T21:18:10;5.50;99.90
19968;DHT22;10145;49.152;9.282;2022-11-20T21:20:38;5.50;99.90
19968;DHT22;10145;49.152;9.282;2022-11-20T21:23:22;5.60;99.90
19968;DHT22;10145;49.152;9.282;2022-11-20T21:25:48;5.50;99.90
19968;DHT22;10145;49.152;9.282;2022-11-20T21:28:13;5.60;99.90
19968;DHT22;10145;49.152;9.282;2022-11-20T21:30:39;5.60;99.90
19968;DHT22;10145;49.152;9.282;2022-11-20T21:33:04;5.60;99.90
19968;DHT22;10145;49.152;9.282;2022-11-20T21:35:33;5.60;99.90
19968;DHT22;10145;49.152;9.282;2022-11-20T21:37:58;5.60;99.90
19968;DHT22;10145;49.152;9.282;2022-11-20T21:40:24;5.60;99.90
19968;DHT22;10145;49.152;9.282;2022-11-20T21:42:49;5.70;99.90
19968;DHT22;10145;49.152;9.282;2022-11-20T21:45:22;5.70;99.90
19968;DHT22;10145;49.152;9.282;2022-11-20T21:47:48;5.70;99.90
19968;DHT22;10145;49.152;9.282;2022-11-20T21:50:15;5.70;99.90
19968;DHT22;10145;49.152;9.282;2022-11-20T21:52:40;5.70;99.90
19968;DHT22;10145;49.152;9.282;2022-11-20T21:55:06;5.50;99.90
19968;DHT22;10145;49.152;9.282;2022-11-20T21:57:33;5.60;99.90
19968;DHT22;10145;49.152;9.282;2022-11-20T21:59:59;5.60;99.90
19968;DHT22;10145;49.152;9.282;2022-11-20T22:02:25;5.60;99.90
19968;DHT22;10145;49.152;9.282;2022-11-20T22:04:50;5.70;99.90
19968;DHT22;10145;49.152;9.282;2022-11-20T22:07:16;5.70;99.90
19968;DHT22;10145;49.152;9.282;2022-11-20T22:09:42;5.70;99.90
19968;DHT22;10145;49.152;9.282;2022-11-20T22:12:07;5.70;99.90
19968;DHT22;10145;49.152;9.282;2022-11-20T22:14:33;5.70;99.90
19968;DHT22;10145;49.152;9.282;2022-11-20T22:16:58;5.70;99.90
19968;DHT22;10145;49.152;9.282;2022-11-20T22:19:24;5.80;99.90
19968;DHT22;10145;49.152;9.282;2022-11-20T22:21:50;5.80;99.90
19968;DHT22;10145;49.152;9.282;2022-11-20T22:24:17;5.90;99.90
19968;DHT22;10145;49.152;9.282;2022-11-20T22:26:43;6.00;99.90
19968;DHT22;10145;49.152;9.282;2022-11-20T22:29:17;6.00;99.90
19968;DHT22;10145;49.152;9.282;2022-11-20T22:31:43;6.10;99.90
19968;DHT22;10145;49.152;9.282;2022-11-20T22:34:11;6.10;99.90
19968;DHT22;10145;49.152;9.282;2022-11-20T22:36:37;6.10;99.90
19968;DHT22;10145;49.152;9.282;2022-11-20T22:39:04;6.00;99.90
19968;DHT22;10145;49.152;9.282;2022-11-20T22:41:30;6.20;99.90
19968;DHT22;10145;49.152;9.282;2022-11-20T22:44:06;6.10;99.90
19968;DHT22;10145;49.152;9.282;2022-11-20T22:46:34;6.20;99.90
19968;DHT22;10145;49.152;9.282;2022-11-20T22:49:02;6.20;99.90
19968;DHT22;10145;49.152;9.282;2022-11-20T22:51:30;6.20;99.90
19968;DHT22;10145;49.152;9.282;2022-11-20T22:53:57;6.20;99.90
19968;DHT22;10145;49.152;9.282;2022-11-20T22:56:23;6.20;99.90
19968;DHT22;10145;49.152;9.282;2022-11-20T22:58:50;6.20;99.90
